createdAt,value
2019-02-16T00:00:18.764Z,28.6
2019-02-16T00:01:08.517Z,28.7
2019-02-16T00:01:57.171Z,28.8
2019-02-16T00:02:48.682Z,28.9
2019-02-16T00:03:38.420Z,28.9
2019-02-16T00:04:27.383Z,29
2019-02-16T00:05:18.030Z,29.1
2019-02-16T00:06:08.382Z,29.1
2019-02-16T00:06:58.142Z,29
2019-02-16T00:07:48.199Z,28.9
2019-02-16T00:08:39.019Z,28.9
2019-02-16T00:09:27.524Z,28.8
2019-02-16T00:10:18.141Z,28.6
2019-02-16T00:11:07.133Z,28.5
2019-02-16T00:11:58.279Z,28.4
2019-02-16T00:12:48.559Z,28.1
2019-02-16T00:13:37.306Z,27.9
2019-02-16T00:14:28.191Z,27.9
2019-02-16T00:15:18.539Z,27.8
2019-02-16T00:16:07.551Z,27.6
2019-02-16T00:16:58.386Z,27.4
2019-02-16T00:17:48.783Z,27.6
2019-02-16T00:18:38.244Z,27.4
2019-02-16T00:19:28.587Z,27.4
2019-02-16T00:20:18.788Z,27.4
2019-02-16T00:21:13.946Z,27.4
2019-02-16T00:21:59.513Z,27.4
2019-02-16T00:22:50.056Z,27.6
2019-02-16T00:24:30.181Z,28
2019-02-16T00:25:19.128Z,28.1
2019-02-16T00:26:09.988Z,28
2019-02-16T00:27:48.963Z,27.7
2019-02-16T00:28:40.172Z,27.5
2019-02-16T00:29:30.724Z,27.6
2019-02-16T00:31:10.071Z,27.7
2019-02-16T00:32:00.725Z,27.6
2019-02-16T00:32:49.777Z,27.5
2019-02-16T00:33:39.370Z,27.3
2019-02-16T00:34:30.954Z,27.3
2019-02-16T00:35:20.645Z,27.4
2019-02-16T00:36:10.488Z,27.6
2019-02-16T00:37:50.982Z,28
2019-02-16T00:38:40.892Z,28.2
2019-02-16T00:39:31.273Z,28.3
2019-02-16T00:40:20.938Z,28.4
2019-02-16T00:41:11.275Z,28.5
2019-02-16T00:42:00.227Z,28.6
2019-02-16T00:42:52.011Z,28.8
2019-02-16T00:43:39.960Z,28.8
2019-02-16T00:44:32.474Z,28.9
2019-02-16T00:45:21.577Z,28.9
2019-02-16T00:46:11.608Z,29
2019-02-16T00:47:00.352Z,28.9
2019-02-16T00:47:52.052Z,28.9
2019-02-16T00:48:41.489Z,28.8
2019-02-16T00:49:30.801Z,28.7
2019-02-16T00:50:21.480Z,28.6
2019-02-16T00:51:20.597Z,28.4
2019-02-16T00:52:00.994Z,28.3
2019-02-16T00:52:50.376Z,28.1
2019-02-16T00:53:43.811Z,27.9
2019-02-16T00:54:31.959Z,27.8
2019-02-16T00:55:22.251Z,27.7
2019-02-16T00:56:11.711Z,27.6
2019-02-16T00:57:01.388Z,27.3
2019-02-16T00:57:52.133Z,27.4
2019-02-16T00:58:41.973Z,27.3
2019-02-16T00:59:34.210Z,27.3
2019-02-16T01:00:22.049Z,27.3
2019-02-16T01:01:12.138Z,27.3
2019-02-16T01:02:02.675Z,27.4
2019-02-16T01:02:51.721Z,27.6
2019-02-16T01:03:41.998Z,27.8
2019-02-16T01:04:32.178Z,27.9
2019-02-16T01:05:22.718Z,28.1
2019-02-16T01:06:12.206Z,28.3
2019-02-16T01:07:02.241Z,28.4
2019-02-16T01:07:53.449Z,28.4
2019-02-16T01:08:42.030Z,28.6
2019-02-16T01:09:31.988Z,28.7
2019-02-16T01:10:22.743Z,28.8
2019-02-16T01:11:12.055Z,28.8
2019-02-16T01:12:01.820Z,28.9
2019-02-16T01:12:51.962Z,28.9
2019-02-16T01:13:42.232Z,28.9
2019-02-16T01:14:32.048Z,29
2019-02-16T01:15:21.812Z,28.9
2019-02-16T01:16:13.222Z,28.8
2019-02-16T01:17:03.219Z,28.7
2019-02-16T01:17:52.787Z,28.6
2019-02-16T01:18:43.605Z,28.5
2019-02-16T01:19:33.037Z,28.3
2019-02-16T01:20:23.164Z,28.1
2019-02-16T01:21:23.740Z,27.9
2019-02-16T01:22:03.237Z,27.8
2019-02-16T01:22:53.789Z,27.7
2019-02-16T01:23:43.437Z,27.6
2019-02-16T01:24:32.861Z,27.4
2019-02-16T01:25:24.275Z,27.4
2019-02-16T01:26:13.191Z,27.3
2019-02-16T01:27:04.686Z,27.3
2019-02-16T01:27:53.763Z,27.3
2019-02-16T01:28:44.250Z,27.3
2019-02-16T01:29:33.746Z,27.4
2019-02-16T01:30:23.227Z,27.6
2019-02-16T01:32:04.246Z,28
2019-02-16T01:32:54.470Z,28.1
2019-02-16T01:33:46.762Z,28.3
2019-02-16T01:34:33.606Z,28.4
2019-02-16T01:35:23.561Z,28.5
2019-02-16T01:36:14.234Z,28.6
2019-02-16T01:37:05.053Z,28.7
2019-02-16T01:37:53.734Z,28.8
2019-02-16T01:38:42.848Z,28.8
2019-02-16T01:39:34.763Z,28.9
2019-02-16T01:40:24.345Z,28.9
2019-02-16T01:41:14.048Z,29
2019-02-16T01:42:04.968Z,29
2019-02-16T01:42:54.072Z,28.9
2019-02-16T01:43:44.498Z,28.9
2019-02-16T01:44:34.539Z,28.8
2019-02-16T01:45:23.985Z,28.6
2019-02-16T01:46:15.441Z,28.5
2019-02-16T01:47:03.675Z,28.4
2019-02-16T01:47:56.345Z,28.2
2019-02-16T01:48:44.460Z,27.9
2019-02-16T01:50:25.495Z,27.7
2019-02-16T01:51:15.546Z,27.6
2019-02-16T01:52:05.058Z,27.3
2019-02-16T01:52:55.642Z,27.4
2019-02-16T01:53:46.213Z,27.3
2019-02-16T01:54:36.637Z,27.3
2019-02-16T01:55:26.127Z,27.3
2019-02-16T01:56:16.685Z,27.3
2019-02-16T01:57:06.432Z,27.4
2019-02-16T01:57:55.525Z,27.6
2019-02-16T01:58:45.448Z,27.8
2019-02-16T01:59:35.243Z,27.9
2019-02-16T02:00:27.000Z,28.1
2019-02-16T02:01:16.439Z,28.2
2019-02-16T02:02:06.230Z,28.3
2019-02-16T02:02:55.792Z,28.4
2019-02-16T02:03:47.194Z,28.5
2019-02-16T02:04:35.900Z,28.6
2019-02-16T02:05:27.032Z,28.7
2019-02-16T02:06:15.687Z,28.8
2019-02-16T02:07:06.889Z,28.8
2019-02-16T02:07:56.832Z,28.9
2019-02-16T02:08:47.056Z,28.9
2019-02-16T02:09:36.469Z,28.9
2019-02-16T02:10:27.427Z,28.9
2019-02-16T02:11:17.476Z,28.8
2019-02-16T02:12:06.629Z,28.8
2019-02-16T02:12:57.917Z,28.6
2019-02-16T02:13:46.539Z,28.5
2019-02-16T02:14:36.668Z,28.4
2019-02-16T02:15:26.866Z,28.3
2019-02-16T02:16:17.291Z,28
2019-02-16T02:17:57.594Z,27.7
2019-02-16T02:18:47.667Z,27.6
2019-02-16T02:19:37.544Z,27.3
2019-02-16T02:20:26.517Z,27.4
2019-02-16T02:21:17.731Z,27.3
2019-02-16T02:22:06.274Z,27.3
2019-02-16T02:22:57.756Z,27.3
2019-02-16T02:23:47.727Z,27.3
2019-02-16T02:24:37.618Z,27.3
2019-02-16T02:25:27.650Z,27.5
2019-02-16T02:26:17.413Z,27.7
2019-02-16T02:27:06.755Z,27.9
2019-02-16T02:27:58.101Z,28
2019-02-16T02:28:47.384Z,28.1
2019-02-16T02:29:37.711Z,28.3
2019-02-16T02:30:29.041Z,28.3
2019-02-16T02:31:17.575Z,28.1
2019-02-16T02:32:08.487Z,27.9
2019-02-16T02:32:58.684Z,27.7
2019-02-16T02:33:48.906Z,27.6
2019-02-16T02:34:38.193Z,27.8
2019-02-16T02:35:29.180Z,27.9
2019-02-16T02:36:19.304Z,27.8
2019-02-16T02:37:08.998Z,27.6
2019-02-16T02:37:59.250Z,27.4
2019-02-16T02:38:49.282Z,27.3
2019-02-16T02:39:39.115Z,27.3
2019-02-16T02:40:27.932Z,27.4
2019-02-16T02:41:19.508Z,27.6
2019-02-16T02:42:59.702Z,28
2019-02-16T02:43:49.348Z,28.1
2019-02-16T02:44:37.269Z,28.3
2019-02-16T02:45:29.254Z,28.4
2019-02-16T02:46:20.135Z,28.5
2019-02-16T02:47:09.951Z,28.6
2019-02-16T02:47:59.431Z,28.7
2019-02-16T02:48:48.704Z,28.8
2019-02-16T02:49:39.835Z,28.8
2019-02-16T02:50:29.476Z,28.9
2019-02-16T02:51:19.457Z,28.9
2019-02-16T02:52:09.454Z,28.9
2019-02-16T02:53:03.170Z,28.8
2019-02-16T02:53:50.709Z,28.7
2019-02-16T02:54:40.436Z,28.6
2019-02-16T02:55:30.367Z,28.5
2019-02-16T02:56:20.661Z,28.4
2019-02-16T02:57:09.648Z,28.3
2019-02-16T02:58:00.649Z,28
2019-02-16T02:58:50.661Z,27.9
2019-02-16T02:59:39.471Z,27.7
2019-02-16T03:00:29.761Z,27.6
2019-02-16T03:01:20.044Z,27.3
2019-02-16T03:02:10.471Z,27.5
2019-02-16T03:03:01.030Z,27.3
2019-02-16T03:03:51.040Z,27.3
2019-02-16T03:04:40.823Z,27.3
2019-02-16T03:08:13.869Z,27.7
2019-02-16T03:09:03.281Z,27.9
2019-02-16T03:09:53.500Z,28.1
2019-02-16T03:10:43.455Z,28.2
2019-02-16T03:11:33.737Z,28.3
2019-02-16T03:12:23.811Z,28.4
2019-02-16T03:13:14.173Z,28.5
2019-02-16T03:14:04.205Z,28.6
2019-02-16T03:14:55.275Z,28.7
2019-02-16T03:15:44.315Z,28.8
2019-02-16T03:16:35.715Z,28.8
2019-02-16T03:17:25.035Z,28.9
2019-02-16T03:18:14.269Z,28.9
2019-02-16T03:19:03.959Z,28.9
2019-02-16T03:19:54.380Z,28.9
2019-02-16T03:20:43.865Z,28.8
2019-02-16T03:21:33.950Z,28.8
2019-02-16T03:22:24.194Z,28.6
2019-02-16T03:23:13.526Z,28.5
2019-02-16T03:24:05.594Z,28.4
2019-02-16T03:24:54.852Z,28.3
2019-02-16T03:25:44.498Z,28
2019-02-16T03:27:25.439Z,27.6
2019-02-16T03:28:13.568Z,27.6
2019-02-16T03:29:05.102Z,27.3
2019-02-16T03:29:55.841Z,27.4
2019-02-16T03:30:45.168Z,27.3
2019-02-16T03:31:35.819Z,27.2
2019-02-16T03:32:24.970Z,27.3
2019-02-16T03:33:15.852Z,27.3
2019-02-16T03:34:05.201Z,27.3
2019-02-16T03:34:56.087Z,27.4
2019-02-16T03:35:46.521Z,27.6
2019-02-16T03:37:24.706Z,28
2019-02-16T03:38:15.384Z,28.1
2019-02-16T03:39:05.178Z,28.2
2019-02-16T03:39:55.774Z,28.3
2019-02-16T03:40:45.851Z,28.4
2019-02-16T03:41:35.389Z,28.5
2019-02-16T03:42:24.805Z,28.6
2019-02-16T03:43:15.618Z,28.7
2019-02-16T03:44:06.603Z,28.8
2019-02-16T03:44:56.840Z,28.8
2019-02-16T03:45:46.143Z,28.8
2019-02-16T03:46:36.220Z,28.9
2019-02-16T03:47:26.456Z,28.9
2019-02-16T03:48:15.770Z,28.8
2019-02-16T03:49:04.974Z,28.7
2019-02-16T03:49:56.054Z,28.6
2019-02-16T03:50:45.968Z,28.4
2019-02-16T03:51:34.881Z,28.4
2019-02-16T03:52:25.552Z,28.3
2019-02-16T03:53:14.974Z,28.1
2019-02-16T03:54:05.987Z,27.9
2019-02-16T03:54:56.227Z,27.7
2019-02-16T03:55:45.803Z,27.6
2019-02-16T03:56:36.886Z,27.3
2019-02-16T03:57:25.835Z,27.3
2019-02-16T03:58:16.172Z,27.2
2019-02-16T03:59:06.528Z,27.1
2019-02-16T03:59:56.308Z,27.2
2019-02-16T04:00:47.565Z,27.2
2019-02-16T04:01:36.950Z,27.2
2019-02-16T04:02:26.690Z,27.3
2019-02-16T04:03:16.594Z,27.5
2019-02-16T04:04:08.049Z,27.8
2019-02-16T04:04:56.459Z,27.9
2019-02-16T04:05:47.629Z,28.1
2019-02-16T04:06:37.329Z,28.2
2019-02-16T04:07:27.054Z,28.3
2019-02-16T04:08:16.901Z,28.4
2019-02-16T04:09:07.541Z,28.4
2019-02-16T04:09:56.366Z,28.6
2019-02-16T04:10:47.185Z,28.6
2019-02-16T04:11:36.976Z,28.7
2019-02-16T04:12:28.063Z,28.8
2019-02-16T04:13:17.955Z,28.9
2019-02-16T04:14:07.801Z,28.9
2019-02-16T04:14:58.224Z,28.9
2019-02-16T04:15:49.127Z,28.9
2019-02-16T04:16:38.013Z,28.9
2019-02-16T04:17:27.486Z,28.8
2019-02-16T04:18:16.543Z,28.7
2019-02-16T04:19:06.878Z,28.6
2019-02-16T04:19:57.651Z,28.5
2019-02-16T04:20:48.300Z,28.4
2019-02-16T04:21:38.321Z,28.2
2019-02-16T04:22:34.227Z,27.9
2019-02-16T04:23:19.233Z,27.8
2019-02-16T04:24:08.130Z,27.6
2019-02-16T04:24:58.274Z,27.4
2019-02-16T04:25:49.328Z,27.3
2019-02-16T04:26:40.447Z,27.3
2019-02-16T04:27:28.663Z,27.2
2019-02-16T04:28:18.315Z,27.2
2019-02-16T04:29:09.628Z,27.2
2019-02-16T04:29:58.793Z,27.2
2019-02-16T04:30:49.742Z,27.3
2019-02-16T04:31:38.150Z,27.5
2019-02-16T04:32:29.395Z,27.7
2019-02-16T04:33:19.670Z,27.9
2019-02-16T04:34:09.399Z,27.9
2019-02-16T04:34:59.490Z,27.8
2019-02-16T04:35:50.305Z,27.6
2019-02-16T04:36:39.258Z,27.4
2019-02-16T04:37:29.852Z,27.3
2019-02-16T04:38:19.385Z,27.4
2019-02-16T04:39:09.556Z,27.6
2019-02-16T04:39:59.487Z,27.5
2019-02-16T04:40:50.107Z,27.4
2019-02-16T04:41:40.043Z,27.3
2019-02-16T04:42:29.630Z,27.1
2019-02-16T04:43:19.986Z,26.9
2019-02-16T04:44:10.387Z,27.1
2019-02-16T04:44:59.662Z,27.3
2019-02-16T04:45:50.424Z,27.5
2019-02-16T04:46:40.008Z,27.7
2019-02-16T04:47:29.675Z,27.9
2019-02-16T04:48:20.913Z,28
2019-02-16T04:49:09.370Z,28.1
2019-02-16T04:50:00.444Z,28.3
2019-02-16T04:50:50.994Z,28.3
2019-02-16T04:51:40.642Z,28.4
2019-02-16T04:52:41.364Z,28.5
2019-02-16T04:53:21.791Z,28.6
2019-02-16T04:54:11.310Z,28.7
2019-02-16T04:55:00.257Z,28.8
2019-02-16T04:55:51.483Z,28.8
2019-02-16T04:56:41.474Z,28.8
2019-02-16T04:57:30.957Z,28.9
2019-02-16T04:58:21.316Z,28.9
2019-02-16T04:59:11.817Z,28.8
2019-02-16T05:00:01.169Z,28.8
2019-02-16T05:00:51.821Z,28.7
2019-02-16T05:01:40.471Z,28.6
2019-02-16T05:02:31.586Z,28.4
2019-02-16T05:03:20.815Z,28.3
2019-02-16T05:04:10.656Z,28.1
2019-02-16T05:05:01.578Z,27.9
2019-02-16T05:05:50.971Z,27.8
2019-02-16T05:06:41.374Z,27.6
2019-02-16T05:07:32.263Z,27.3
2019-02-16T05:08:21.443Z,27.4
2019-02-16T05:09:11.313Z,27.3
2019-02-16T05:10:02.311Z,27.2
2019-02-16T05:10:52.930Z,27.2
2019-02-16T05:11:42.309Z,27.2
2019-02-16T05:12:31.990Z,27.2
2019-02-16T05:13:22.599Z,27.3
2019-02-16T05:14:12.376Z,27.6
2019-02-16T05:15:01.771Z,27.7
2019-02-16T05:16:40.961Z,28
2019-02-16T05:17:32.685Z,28.1
2019-02-16T05:18:21.868Z,28.2
2019-02-16T05:19:13.034Z,28.3
2019-02-16T05:20:02.495Z,28.4
2019-02-16T05:20:52.566Z,28.4
2019-02-16T05:21:42.372Z,28.6
2019-02-16T05:22:32.409Z,28.6
2019-02-16T05:23:23.035Z,28.7
2019-02-16T05:24:13.622Z,28.8
2019-02-16T05:25:02.822Z,28.8
2019-02-16T05:25:54.838Z,28.9
2019-02-16T05:26:42.960Z,28.9
2019-02-16T05:27:32.827Z,28.9
2019-02-16T05:28:21.981Z,28.9
2019-02-16T05:29:12.649Z,28.9
2019-02-16T05:30:03.253Z,28.8
2019-02-16T05:30:53.611Z,28.7
2019-02-16T05:31:42.483Z,28.6
2019-02-16T05:32:33.629Z,28.5
2019-02-16T05:33:23.601Z,28.4
2019-02-16T05:34:13.046Z,28.2
2019-02-16T05:35:04.256Z,27.9
2019-02-16T05:36:43.661Z,27.6
2019-02-16T05:37:36.419Z,27.4
2019-02-16T05:38:23.219Z,27.4
2019-02-16T05:39:13.561Z,27.3
2019-02-16T05:40:04.268Z,27.2
2019-02-16T05:40:54.018Z,27.2
2019-02-16T05:41:43.750Z,27.2
2019-02-16T05:42:34.741Z,27.2
2019-02-16T05:43:24.766Z,27.3
2019-02-16T05:44:14.121Z,27.5
2019-02-16T05:45:04.444Z,27.6
2019-02-16T05:46:44.598Z,27.9
2019-02-16T05:47:34.461Z,28.1
2019-02-16T05:48:25.143Z,28.2
2019-02-16T05:49:14.745Z,28.3
2019-02-16T05:50:04.312Z,28.3
2019-02-16T05:50:55.467Z,28.4
2019-02-16T05:51:44.994Z,28.5
2019-02-16T05:52:35.043Z,28.6
2019-02-16T05:53:26.815Z,28.6
2019-02-16T05:54:14.568Z,28.7
2019-02-16T05:55:05.140Z,28.8
2019-02-16T05:55:53.978Z,28.8
2019-02-16T05:56:45.283Z,28.9
2019-02-16T05:57:34.265Z,28.9
2019-02-16T05:58:25.103Z,28.9
2019-02-16T05:59:17.688Z,28.9
2019-02-16T06:00:05.245Z,28.9
2019-02-16T06:00:55.294Z,28.8
2019-02-16T06:01:55.947Z,28.7
2019-02-16T06:02:35.635Z,28.6
2019-02-16T06:03:25.525Z,28.4
2019-02-16T06:06:13.542Z,27.9
2019-02-16T06:07:03.180Z,27.6
2019-02-16T06:07:53.217Z,27.5
2019-02-16T06:08:43.865Z,27.3
2019-02-16T06:09:33.792Z,27.3
2019-02-16T06:10:23.914Z,27.2
2019-02-16T06:11:15.166Z,27.2
2019-02-16T06:12:03.331Z,27.2
2019-02-16T06:12:53.618Z,27.2
2019-02-16T06:13:43.648Z,27.2
2019-02-16T06:14:33.699Z,27.3
2019-02-16T06:15:23.375Z,27.5
2019-02-16T06:16:14.214Z,27.6
2019-02-16T06:17:53.515Z,27.9
2019-02-16T06:18:43.353Z,28.1
2019-02-16T06:19:33.893Z,28.2
2019-02-16T06:20:23.685Z,28.3
2019-02-16T06:21:15.212Z,28.3
2019-02-16T06:22:03.488Z,28.4
2019-02-16T06:23:05.443Z,28.3
2019-02-16T06:23:43.985Z,28
2019-02-16T06:25:24.878Z,27.6
2019-02-16T06:26:14.748Z,27.5
2019-02-16T06:27:03.923Z,27.6
2019-02-16T06:27:54.934Z,27.8
2019-02-16T06:28:45.843Z,27.7
2019-02-16T06:29:34.919Z,27.5
2019-02-16T06:30:25.227Z,27.4
2019-02-16T06:31:15.572Z,27.2
2019-02-16T06:32:05.879Z,27.1
2019-02-16T06:32:56.215Z,27.1
2019-02-16T06:33:45.053Z,27.4
2019-02-16T06:34:37.478Z,27.6
2019-02-16T06:35:24.445Z,27.8
2019-02-16T06:36:14.267Z,27.9
2019-02-16T06:37:05.696Z,28.1
2019-02-16T06:37:55.412Z,28.2
2019-02-16T06:38:45.776Z,28.3
2019-02-16T06:39:36.272Z,28.4
2019-02-16T06:40:24.834Z,28.4
2019-02-16T06:41:15.229Z,28.6
2019-02-16T06:42:06.080Z,28.6
2019-02-16T06:42:56.414Z,28.7
2019-02-16T06:43:45.416Z,28.8
2019-02-16T06:44:36.174Z,28.8
2019-02-16T06:45:25.926Z,28.8
2019-02-16T06:46:16.009Z,28.8
2019-02-16T06:47:05.538Z,28.8
2019-02-16T06:47:55.838Z,28.7
2019-02-16T06:48:47.033Z,28.6
2019-02-16T06:49:35.513Z,28.4
2019-02-16T06:50:26.001Z,28.3
2019-02-16T06:51:18.498Z,28.2
2019-02-16T06:52:05.883Z,27.9
2019-02-16T06:52:56.503Z,27.8
2019-02-16T06:53:46.805Z,27.6
2019-02-16T06:54:36.903Z,27.4
2019-02-16T06:55:26.672Z,27.4
2019-02-16T06:56:16.694Z,27.3
2019-02-16T06:57:07.861Z,27.2
2019-02-16T06:57:56.520Z,27.2
2019-02-16T06:58:47.721Z,27.2
2019-02-16T06:59:37.216Z,27.2
2019-02-16T07:00:27.394Z,27.4
2019-02-16T07:01:17.062Z,27.5
2019-02-16T07:02:08.218Z,27.6
2019-02-16T07:02:56.947Z,27.7
2019-02-16T07:03:47.277Z,27.7
2019-02-16T07:06:13.740Z,27.5
2019-02-16T07:07:02.732Z,27.4
2019-02-16T07:07:53.885Z,27.4
2019-02-16T07:08:45.417Z,27.3
2019-02-16T07:09:33.989Z,27.2
2019-02-16T07:10:23.350Z,26.9
2019-02-16T07:11:13.377Z,26.8
2019-02-16T07:12:03.933Z,26.6
2019-02-16T07:12:53.929Z,26.4
2019-02-16T07:13:43.757Z,26.4
2019-02-16T07:14:35.808Z,26.3
2019-02-16T07:15:24.167Z,26.3
2019-02-16T07:16:13.589Z,26.2
2019-02-16T07:17:04.253Z,26
2019-02-16T07:17:54.405Z,26.2
2019-02-16T07:18:42.293Z,26.4
2019-02-16T07:19:33.867Z,26.7
2019-02-16T07:20:23.698Z,27.1
2019-02-16T07:21:15.091Z,27.6
2019-02-16T07:22:03.751Z,27.3
2019-02-16T07:22:53.541Z,27.2
2019-02-16T07:23:44.879Z,27.1
2019-02-16T07:24:35.204Z,26.9
2019-02-16T07:25:24.066Z,26.9
2019-02-16T07:26:15.691Z,26.9
2019-02-16T07:27:04.299Z,26.9
2019-02-16T07:27:54.244Z,26.9
2019-02-16T07:28:44.800Z,26.9
2019-02-16T07:29:35.487Z,26.9
2019-02-16T07:30:25.271Z,26.8
2019-02-16T07:31:16.862Z,26.4
2019-02-16T07:32:05.711Z,26.1
2019-02-16T07:32:55.146Z,26
2019-02-16T07:33:45.741Z,25.9
2019-02-16T07:34:34.731Z,25.8
2019-02-16T07:35:25.611Z,25.8
2019-02-16T07:36:15.581Z,25.7
2019-02-16T07:37:04.251Z,25.6
2019-02-16T07:37:55.853Z,25.6
2019-02-16T07:38:46.103Z,25.5
2019-02-16T07:39:35.630Z,25.4
2019-02-16T07:40:25.377Z,25.5
2019-02-16T07:41:15.963Z,25.8
2019-02-16T07:42:07.798Z,26.1
2019-02-16T07:42:55.888Z,26.4
2019-02-16T07:43:45.300Z,27.3
2019-02-16T07:44:35.368Z,26.9
2019-02-16T07:45:26.019Z,26.8
2019-02-16T07:46:16.352Z,26.6
2019-02-16T07:47:06.334Z,26.6
2019-02-16T07:47:55.839Z,26.6
2019-02-16T07:48:46.161Z,26.6
2019-02-16T07:49:35.772Z,26.6
2019-02-16T07:50:25.568Z,26.6
2019-02-16T07:51:16.395Z,26.6
2019-02-16T07:52:06.407Z,26.6
2019-02-16T07:52:56.378Z,26.6
2019-02-16T07:53:46.401Z,26.3
2019-02-16T07:54:36.856Z,25.9
2019-02-16T07:55:28.767Z,25.7
2019-02-16T07:56:16.963Z,25.6
2019-02-16T07:57:06.489Z,25.5
2019-02-16T07:57:56.456Z,25.4
2019-02-16T07:58:46.768Z,25.4
2019-02-16T07:59:36.305Z,25.3
2019-02-16T08:00:26.900Z,25.3
2019-02-16T08:01:16.772Z,25.3
2019-02-16T08:02:06.846Z,25.1
2019-02-16T08:02:57.391Z,25.3
2019-02-16T08:03:47.238Z,25.5
2019-02-16T08:04:37.881Z,25.7
2019-02-16T08:05:27.597Z,26.1
2019-02-16T08:06:17.205Z,26.9
2019-02-16T08:07:07.490Z,26.7
2019-02-16T08:07:56.640Z,26.5
2019-02-16T08:08:47.252Z,26.3
2019-02-16T08:09:37.575Z,26.3
2019-02-16T08:10:27.335Z,26.3
2019-02-16T08:11:18.033Z,26.4
2019-02-16T08:12:07.687Z,26.4
2019-02-16T08:12:57.255Z,26.4
2019-02-16T08:13:48.067Z,26.4
2019-02-16T08:14:37.055Z,26.4
2019-02-16T08:15:27.911Z,26.4
2019-02-16T08:16:17.442Z,26.3
2019-02-16T08:17:08.107Z,25.8
2019-02-16T08:17:57.050Z,25.5
2019-02-16T08:18:48.759Z,25.3
2019-02-16T08:19:38.248Z,25.3
2019-02-16T08:20:28.411Z,25.2
2019-02-16T08:21:18.667Z,25.1
2019-02-16T08:22:08.181Z,25.1
2019-02-16T08:22:58.234Z,25.1
2019-02-16T08:23:49.399Z,25
2019-02-16T08:24:40.397Z,24.9
2019-02-16T08:25:28.399Z,24.9
2019-02-16T08:26:17.832Z,25.2
2019-02-16T08:27:08.453Z,25.4
2019-02-16T08:27:58.869Z,25.7
2019-02-16T08:28:49.138Z,26.6
2019-02-16T08:29:38.891Z,26.1
2019-02-16T08:30:28.766Z,25.7
2019-02-16T08:31:19.323Z,25.5
2019-02-16T08:32:09.376Z,25.4
2019-02-16T08:32:58.253Z,25.4
2019-02-16T08:33:49.243Z,25.3
2019-02-16T08:34:38.960Z,25.3
2019-02-16T08:35:29.141Z,25.3
2019-02-16T08:36:18.264Z,25.3
2019-02-16T08:37:09.200Z,25.3
2019-02-16T08:37:59.053Z,25.3
2019-02-16T08:38:49.276Z,25.3
2019-02-16T08:39:39.640Z,25.1
2019-02-16T08:40:30.301Z,24.9
2019-02-16T08:41:19.465Z,24.8
2019-02-16T08:42:10.308Z,24.8
2019-02-16T08:42:59.650Z,24.7
2019-02-16T08:43:49.658Z,24.7
2019-02-16T08:44:39.946Z,24.7
2019-02-16T08:45:29.976Z,24.6
2019-02-16T08:46:20.922Z,24.6
2019-02-16T08:47:09.860Z,24.8
2019-02-16T08:48:00.737Z,25
2019-02-16T08:48:49.945Z,25.3
2019-02-16T08:49:39.697Z,25.6
2019-02-16T08:50:32.729Z,26.6
2019-02-16T08:51:19.640Z,26.1
2019-02-16T08:52:10.510Z,25.8
2019-02-16T08:52:59.727Z,25.6
2019-02-16T08:54:00.017Z,25.6
2019-02-16T08:54:40.370Z,25.6
2019-02-16T08:55:31.819Z,25.6
2019-02-16T08:56:20.799Z,25.7
2019-02-16T08:57:10.304Z,25.7
2019-02-16T08:58:01.700Z,25.8
2019-02-16T08:58:51.286Z,25.8
2019-02-16T08:59:41.009Z,25.8
2019-02-16T09:00:30.458Z,25.8
2019-02-16T09:01:20.052Z,25.7
2019-02-16T09:02:10.727Z,25.7
2019-02-16T09:03:01.771Z,25.7
2019-02-16T09:03:51.056Z,25.6
2019-02-16T09:04:41.124Z,25.6
2019-02-16T09:05:30.539Z,25.3
2019-02-16T09:06:22.277Z,25
2019-02-16T09:07:09.532Z,25.1
2019-02-16T09:08:02.417Z,25.3
2019-02-16T09:08:51.929Z,25.8
2019-02-16T09:09:41.997Z,25.5
2019-02-16T09:10:32.279Z,25.1
2019-02-16T09:11:22.326Z,24.9
2019-02-16T09:12:14.381Z,24.8
2019-02-16T09:13:02.762Z,25
2019-02-16T09:13:52.523Z,25.4
2019-02-16T09:14:41.856Z,25.7
2019-02-16T09:15:31.821Z,25.9
2019-02-16T09:16:21.965Z,26.1
2019-02-16T09:17:15.351Z,26.2
2019-02-16T09:18:02.836Z,26.3
2019-02-16T09:18:52.914Z,26.4
2019-02-16T09:19:41.285Z,26.4
2019-02-16T09:20:33.298Z,26.4
2019-02-16T09:21:25.663Z,26.4
2019-02-16T09:22:14.813Z,26.5
2019-02-16T09:23:02.376Z,26.5
2019-02-16T09:24:02.003Z,26.5
2019-02-16T09:24:43.248Z,26.5
2019-02-16T09:25:31.731Z,26.4
2019-02-16T09:26:22.019Z,26.5
2019-02-16T09:27:14.348Z,26.4
2019-02-16T09:28:03.780Z,26.4
2019-02-16T09:28:53.870Z,26.4
2019-02-16T09:29:42.080Z,26.4
2019-02-16T09:30:33.138Z,25.9
2019-02-16T09:31:24.048Z,25.6
2019-02-16T09:32:15.352Z,25.7
2019-02-16T09:33:03.292Z,26.4
2019-02-16T09:33:52.522Z,25.8
2019-02-16T09:34:43.684Z,25.4
2019-02-16T09:35:33.770Z,25.2
2019-02-16T09:36:23.232Z,25.1
2019-02-16T09:37:13.619Z,25.3
2019-02-16T09:38:03.875Z,25.6
2019-02-16T09:38:52.661Z,25.9
2019-02-16T09:39:44.319Z,26.2
2019-02-16T09:40:33.471Z,26.4
2019-02-16T09:41:23.894Z,26.4
2019-02-16T09:42:13.645Z,26.5
2019-02-16T09:43:06.114Z,26.5
2019-02-16T09:43:54.562Z,26.6
2019-02-16T09:44:44.389Z,26.6
2019-02-16T09:45:33.952Z,26.5
2019-02-16T09:46:25.320Z,26.5
2019-02-16T09:47:14.067Z,26.5
2019-02-16T09:48:18.933Z,26.4
2019-02-16T09:48:54.071Z,26.4
2019-02-16T09:49:45.226Z,26.4
2019-02-16T09:50:37.794Z,26.3
2019-02-16T09:51:23.758Z,26.3
2019-02-16T09:52:14.628Z,26.3
2019-02-16T09:53:04.341Z,26.2
2019-02-16T09:53:54.964Z,26.2
2019-02-16T09:54:45.294Z,25.8
2019-02-16T09:55:33.761Z,25.6
2019-02-16T09:56:24.900Z,25.5
2019-02-16T09:57:14.094Z,25.2
2019-02-16T09:58:04.425Z,25.2
2019-02-16T09:58:54.460Z,25.2
2019-02-16T09:59:45.385Z,25.2
2019-02-16T10:00:35.263Z,25.4
2019-02-16T10:01:24.931Z,25.8
2019-02-16T10:02:15.254Z,26.1
2019-02-16T10:03:05.028Z,26.3
2019-02-16T10:03:55.357Z,26.5
2019-02-16T10:04:47.761Z,26.7
2019-02-16T10:07:12.615Z,26.9
2019-02-16T10:08:03.352Z,26.9
2019-02-16T10:08:54.044Z,26.9
2019-02-16T10:09:43.760Z,26.9
2019-02-16T10:10:32.827Z,26.9
2019-02-16T10:11:22.805Z,26.8
2019-02-16T10:12:14.245Z,26.8
2019-02-16T10:13:05.810Z,26.7
2019-02-16T10:13:53.832Z,26.6
2019-02-16T10:14:43.018Z,26.6
2019-02-16T10:15:33.662Z,26.5
2019-02-16T10:16:24.294Z,26.5
2019-02-16T10:17:16.889Z,26.4
2019-02-16T10:18:03.519Z,26.4
2019-02-16T10:18:54.671Z,26.3
2019-02-16T10:19:43.329Z,26.1
2019-02-16T10:20:34.479Z,25.7
2019-02-16T10:21:24.604Z,25.8
2019-02-16T10:22:13.826Z,25.4
2019-02-16T10:23:04.505Z,25.3
2019-02-16T10:23:54.729Z,25.4
2019-02-16T10:24:43.941Z,25.3
2019-02-16T10:25:34.337Z,25.5
2019-02-16T10:26:23.776Z,25.8
2019-02-16T10:27:13.882Z,26.1
2019-02-16T10:28:05.033Z,26.3
2019-02-16T10:28:55.641Z,26.6
2019-02-16T10:29:44.011Z,26.8
2019-02-16T10:30:34.989Z,26.9
2019-02-16T10:31:25.014Z,27
2019-02-16T10:32:15.171Z,27.1
2019-02-16T10:33:04.609Z,27.1
2019-02-16T10:33:54.368Z,27
2019-02-16T10:34:45.498Z,27
2019-02-16T10:35:37.465Z,26.9
2019-02-16T10:36:24.274Z,26.9
2019-02-16T10:37:14.284Z,26.9
2019-02-16T10:38:06.048Z,26.8
2019-02-16T10:38:57.043Z,26.8
2019-02-16T10:39:45.823Z,26.7
2019-02-16T10:40:35.328Z,26.6
2019-02-16T10:41:25.362Z,26.6
2019-02-16T10:42:15.470Z,26.5
2019-02-16T10:43:04.709Z,26.4
2019-02-16T10:43:54.520Z,26.4
2019-02-16T10:44:45.622Z,26
2019-02-16T10:45:35.690Z,25.8
2019-02-16T10:46:25.203Z,25.9
2019-02-16T10:47:15.795Z,25.5
2019-02-16T10:48:06.655Z,25.5
2019-02-16T10:48:56.480Z,25.4
2019-02-16T10:49:45.805Z,25.5
2019-02-16T10:50:35.732Z,25.6
2019-02-16T10:51:25.512Z,25.9
2019-02-16T10:52:16.227Z,26.3
2019-02-16T10:53:05.808Z,26.6
2019-02-16T10:53:56.243Z,26.8
2019-02-16T10:54:47.154Z,26.9
2019-02-16T10:55:36.399Z,27.1
2019-02-16T10:56:26.700Z,27.1
2019-02-16T10:57:17.402Z,27.1
2019-02-16T10:58:06.861Z,27.1
2019-02-16T10:58:56.049Z,27.1
2019-02-16T10:59:49.151Z,27
2019-02-16T11:00:35.867Z,26.9
2019-02-16T11:01:25.493Z,26.9
2019-02-16T11:02:19.287Z,26.9
2019-02-16T11:03:06.957Z,26.8
2019-02-16T11:03:56.447Z,26.8
2019-02-16T11:04:48.529Z,26.8
2019-02-16T11:05:37.185Z,26.7
2019-02-16T11:06:27.131Z,26.6
2019-02-16T11:07:19.504Z,26.6
2019-02-16T11:08:08.149Z,26.6
2019-02-16T11:08:57.067Z,26.5
2019-02-16T11:09:47.206Z,26
2019-02-16T11:10:36.918Z,25.9
2019-02-16T11:11:27.544Z,26.1
2019-02-16T11:12:18.069Z,26.9
2019-02-16T11:13:07.629Z,27.3
2019-02-16T11:13:56.221Z,26.4
2019-02-16T11:14:47.453Z,25.9
2019-02-16T11:15:39.151Z,25.7
2019-02-16T11:16:28.631Z,25.6
2019-02-16T11:17:17.315Z,25.5
2019-02-16T11:18:07.979Z,25.6
2019-02-16T11:18:57.481Z,25.6
2019-02-16T11:19:48.031Z,25.6
2019-02-16T11:20:37.399Z,25.6
2019-02-16T11:21:28.094Z,25.6
2019-02-16T11:22:18.130Z,25.6
2019-02-16T11:23:07.221Z,25.6
2019-02-16T11:23:57.795Z,25.6
2019-02-16T11:24:48.360Z,25.6
2019-02-16T11:25:37.885Z,25.6
2019-02-16T11:26:28.490Z,25.3
2019-02-16T11:27:18.258Z,25.6
2019-02-16T11:28:07.503Z,25.2